Valley International Airport
KHRL : now visible

Airfield :











YOU CAN JOIN US ON...

 
LOGIN :

Register | Disclaimer

   EN    FR    IT 

 









Legend :    VFR   Marginal VFR   IFR   Intensive IFR   Very Intensive IFR
Visi :
Ceiling :
>= 8 km
>= 3000ft
5 to 8 km
1000 to 3000 ft
1500m to 5 km
500 to 1000 ft
800 to 1500m
200 to 500 ft
< 800m
< 200 ft
Symbols :   Thunderstorms  Fog  Heavy snow  Heavy precipitations  Wind > 20 kt






- Airport Elevation : 36 ft
- IATA code : HRL


KHRL - Valley International

CURRENT METAR :
  • 161101Z 10005KT 6SM BR OVC029 24/24 A2973 RMK AO2 T02440239

EXPIRED METARs :
  • 161016Z AUTO 09006KT 7SM FEW010 BKN015 OVC028 25/24 A2973 RMK AO2 T02500244
  • 160952Z AUTO 08006KT 7SM BKN014 OVC023 25/24 A2974 RMK AO2 SLP070 T02500244
  • 160920Z AUTO 10005KT 7SM BKN012 BKN017 OVC031 25/24 A2973 RMK AO2 T02500244
  • 160852Z AUTO 14007KT 8SM FEW010 OVC031 25/24 A2973 RMK AO2 SLP066 T02500244 58011
  • 160838Z AUTO 15008KT 8SM FEW010 SCT016 OVC031 25/24 A2973 RMK AO2 T02500244

TAF KHRL
Valid from the 16 at 12:00 until the 17 at 12:00 UTC


161120Z 1612/1712 11008KT P6SM BKN015
FM161500 16013G18KT P6SM BKN040
FM170200 12007KT P6SM BKN015
FM170800 36008KT P6SM TSRA BKN020CB
KZHU FIR / North America



MET'MAP, your aeronautical weather chart ! - Copyright ORBIFLY December 2007 - Disclaimer

ORBIFLY MET'MAP TEAM :

Programming & Development : Alexandra Zaïnal
Concept & original design : Baudouin d'Aumeries
Assistance for programming : Marc-Olivier Méhu
Technical & hardware support : Manuel Goepfert

Contact : metmap@orbifly.com




SOURCES & CREDITS :

   NOAA       Earth
Advisory